sensor_id;sensor_type;location;lat;lon;timestamp;P1;durP1;ratioP1;P2;durP2;ratioP2
18084;SDS011;9169;44.492;11.372;2023-04-24T00:01:22;8.37;;;3.73;;
18084;SDS011;9169;44.492;11.372;2023-04-24T00:03:51;8.60;;;3.40;;
18084;SDS011;9169;44.492;11.372;2023-04-24T00:06:21;10.40;;;3.80;;
18084;SDS011;9169;44.492;11.372;2023-04-24T00:08:50;8.27;;;3.53;;
18084;SDS011;9169;44.492;11.372;2023-04-24T00:11:19;8.67;;;3.77;;
18084;SDS011;9169;44.492;11.372;2023-04-24T00:13:47;7.00;;;3.10;;
18084;SDS011;9169;44.492;11.372;2023-04-24T00:16:16;5.80;;;3.10;;
18084;SDS011;9169;44.492;11.372;2023-04-24T00:18:45;7.53;;;3.50;;
18084;SDS011;9169;44.492;11.372;2023-04-24T00:21:14;6.47;;;2.90;;
18084;SDS011;9169;44.492;11.372;2023-04-24T00:23:45;7.33;;;2.97;;
18084;SDS011;9169;44.492;11.372;2023-04-24T00:26:14;7.30;;;3.30;;
18084;SDS011;9169;44.492;11.372;2023-04-24T00:28:43;6.40;;;3.37;;
18084;SDS011;9169;44.492;11.372;2023-04-24T00:31:13;7.37;;;3.07;;
18084;SDS011;9169;44.492;11.372;2023-04-24T00:33:42;8.20;;;3.30;;
18084;SDS011;9169;44.492;11.372;2023-04-24T00:36:11;9.67;;;3.30;;
18084;SDS011;9169;44.492;11.372;2023-04-24T00:38:40;12.60;;;3.20;;
18084;SDS011;9169;44.492;11.372;2023-04-24T00:41:10;6.53;;;2.97;;
18084;SDS011;9169;44.492;11.372;2023-04-24T00:43:39;5.33;;;3.23;;
18084;SDS011;9169;44.492;11.372;2023-04-24T00:46:08;7.33;;;2.90;;
18084;SDS011;9169;44.492;11.372;2023-04-24T00:48:37;7.80;;;3.27;;
18084;SDS011;9169;44.492;11.372;2023-04-24T00:51:07;11.70;;;3.33;;
18084;SDS011;9169;44.492;11.372;2023-04-24T00:53:36;6.70;;;3.17;;
18084;SDS011;9169;44.492;11.372;2023-04-24T00:56:04;7.63;;;3.27;;
18084;SDS011;9169;44.492;11.372;2023-04-24T00:58:35;5.33;;;3.00;;
18084;SDS011;9169;44.492;11.372;2023-04-24T01:01:05;6.90;;;2.67;;
18084;SDS011;9169;44.492;11.372;2023-04-24T01:03:36;5.43;;;2.90;;
18084;SDS011;9169;44.492;11.372;2023-04-24T01:06:06;8.60;;;2.90;;
18084;SDS011;9169;44.492;11.372;2023-04-24T01:08:36;9.53;;;2.80;;
18084;SDS011;9169;44.492;11.372;2023-04-24T01:11:05;7.03;;;3.03;;
18084;SDS011;9169;44.492;11.372;2023-04-24T01:13:36;6.03;;;2.90;;
18084;SDS011;9169;44.492;11.372;2023-04-24T01:16:04;7.37;;;3.20;;
18084;SDS011;9169;44.492;11.372;2023-04-24T01:18:36;8.27;;;3.10;;
18084;SDS011;9169;44.492;11.372;2023-04-24T01:21:05;8.10;;;2.70;;
18084;SDS011;9169;44.492;11.372;2023-04-24T01:23:37;6.30;;;2.80;;
18084;SDS011;9169;44.492;11.372;2023-04-24T01:26:06;4.93;;;2.63;;
18084;SDS011;9169;44.492;11.372;2023-04-24T01:28:35;7.37;;;2.90;;
18084;SDS011;9169;44.492;11.372;2023-04-24T01:31:05;8.00;;;3.37;;
18084;SDS011;9169;44.492;11.372;2023-04-24T01:33:33;6.30;;;3.10;;
18084;SDS011;9169;44.492;11.372;2023-04-24T01:36:02;8.37;;;3.43;;
18084;SDS011;9169;44.492;11.372;2023-04-24T01:38:31;8.70;;;2.90;;
18084;SDS011;9169;44.492;11.372;2023-04-24T01:41:01;5.30;;;2.43;;
18084;SDS011;9169;44.492;11.372;2023-04-24T01:43:30;8.60;;;2.97;;
18084;SDS011;9169;44.492;11.372;2023-04-24T01:45:59;8.23;;;2.77;;
18084;SDS011;9169;44.492;11.372;2023-04-24T01:48:28;13.03;;;3.20;;
18084;SDS011;9169;44.492;11.372;2023-04-24T01:50:57;8.67;;;3.57;;
18084;SDS011;9169;44.492;11.372;2023-04-24T01:53:27;7.47;;;3.23;;
18084;SDS011;9169;44.492;11.372;2023-04-24T01:55:55;6.63;;;2.77;;
18084;SDS011;9169;44.492;11.372;2023-04-24T01:58:26;8.90;;;3.17;;
18084;SDS011;9169;44.492;11.372;2023-04-24T02:00:55;5.70;;;2.80;;
18084;SDS011;9169;44.492;11.372;2023-04-24T02:03:25;7.00;;;3.10;;
18084;SDS011;9169;44.492;11.372;2023-04-24T02:05:56;8.40;;;2.73;;
18084;SDS011;9169;44.492;11.372;2023-04-24T02:08:25;11.33;;;3.40;;
18084;SDS011;9169;44.492;11.372;2023-04-24T02:10:54;9.17;;;3.00;;
18084;SDS011;9169;44.492;11.372;2023-04-24T02:13:23;9.00;;;3.40;;
18084;SDS011;9169;44.492;11.372;2023-04-24T02:15:54;9.50;;;3.20;;
18084;SDS011;9169;44.492;11.372;2023-04-24T02:18:22;7.57;;;3.23;;
18084;SDS011;9169;44.492;11.372;2023-04-24T02:20:51;8.10;;;3.27;;
18084;SDS011;9169;44.492;11.372;2023-04-24T02:23:20;11.50;;;2.90;;
18084;SDS011;9169;44.492;11.372;2023-04-24T02:25:49;5.83;;;2.83;;
18084;SDS011;9169;44.492;11.372;2023-04-24T02:28:17;9.63;;;3.23;;
18084;SDS011;9169;44.492;11.372;2023-04-24T02:30:47;7.13;;;3.20;;
18084;SDS011;9169;44.492;11.372;2023-04-24T02:33:16;8.27;;;3.20;;
18084;SDS011;9169;44.492;11.372;2023-04-24T02:35:45;9.10;;;3.20;;
18084;SDS011;9169;44.492;11.372;2023-04-24T02:38:14;9.60;;;3.03;;
18084;SDS011;9169;44.492;11.372;2023-04-24T02:40:43;11.80;;;3.70;;
18084;SDS011;9169;44.492;11.372;2023-04-24T02:43:11;7.27;;;2.97;;
18084;SDS011;9169;44.492;11.372;2023-04-24T02:45:40;7.97;;;3.10;;
18084;SDS011;9169;44.492;11.372;2023-04-24T02:48:10;7.73;;;3.07;;
18084;SDS011;9169;44.492;11.372;2023-04-24T02:50:38;6.53;;;3.60;;
18084;SDS011;9169;44.492;11.372;2023-04-24T02:53:07;7.00;;;3.30;;
18084;SDS011;9169;44.492;11.372;2023-04-24T02:55:36;8.77;;;3.40;;
18084;SDS011;9169;44.492;11.372;2023-04-24T02:58:04;11.43;;;3.67;;
18084;SDS011;9169;44.492;11.372;2023-04-24T03:00:34;9.20;;;3.40;;
18084;SDS011;9169;44.492;11.372;2023-04-24T03:03:02;11.50;;;3.73;;
18084;SDS011;9169;44.492;11.372;2023-04-24T03:05:33;11.17;;;3.80;;
18084;SDS011;9169;44.492;11.372;2023-04-24T03:08:02;12.83;;;3.73;;
18084;SDS011;9169;44.492;11.372;2023-04-24T03:10:31;9.63;;;3.23;;
18084;SDS011;9169;44.492;11.372;2023-04-24T03:13:00;8.90;;;3.37;;
18084;SDS011;9169;44.492;11.372;2023-04-24T03:15:29;9.40;;;3.77;;
18084;SDS011;9169;44.492;11.372;2023-04-24T03:17:59;10.07;;;3.60;;
18084;SDS011;9169;44.492;11.372;2023-04-24T03:20:29;8.97;;;3.27;;
18084;SDS011;9169;44.492;11.372;2023-04-24T03:22:59;10.50;;;3.37;;
18084;SDS011;9169;44.492;11.372;2023-04-24T03:25:29;10.50;;;3.93;;
18084;SDS011;9169;44.492;11.372;2023-04-24T03:27:58;9.87;;;3.73;;
18084;SDS011;9169;44.492;11.372;2023-04-24T03:30:34;12.27;;;4.00;;
18084;SDS011;9169;44.492;11.372;2023-04-24T03:33:04;10.83;;;3.80;;
18084;SDS011;9169;44.492;11.372;2023-04-24T03:35:36;15.33;;;3.50;;
18084;SDS011;9169;44.492;11.372;2023-04-24T03:38:10;15.70;;;3.97;;
18084;SDS011;9169;44.492;11.372;2023-04-24T03:40:47;13.10;;;3.73;;
18084;SDS011;9169;44.492;11.372;2023-04-24T03:43:54;10.50;;;3.50;;
18084;SDS011;9169;44.492;11.372;2023-04-24T03:46:24;15.30;;;3.70;;
18084;SDS011;9169;44.492;11.372;2023-04-24T03:48:57;14.40;;;3.53;;
18084;SDS011;9169;44.492;11.372;2023-04-24T03:51:30;13.33;;;3.60;;
18084;SDS011;9169;44.492;11.372;2023-04-24T03:54:12;12.43;;;3.43;;
18084;SDS011;9169;44.492;11.372;2023-04-24T03:56:41;13.07;;;3.57;;
18084;SDS011;9169;44.492;11.372;2023-04-24T03:59:10;16.17;;;3.40;;
18084;SDS011;9169;44.492;11.372;2023-04-24T04:01:42;13.83;;;3.20;;
18084;SDS011;9169;44.492;11.372;2023-04-24T04:04:14;12.83;;;3.43;;
18084;SDS011;9169;44.492;11.372;2023-04-24T04:06:44;13.63;;;3.60;;
18084;SDS011;9169;44.492;11.372;2023-04-24T04:09:15;11.27;;;3.37;;
18084;SDS011;9169;44.492;11.372;2023-04-24T04:11:45;15.53;;;3.87;;
18084;SDS011;9169;44.492;11.372;2023-04-24T04:14:14;13.43;;;3.40;;
18084;SDS011;9169;44.492;11.372;2023-04-24T04:16:46;13.70;;;3.40;;
18084;SDS011;9169;44.492;11.372;2023-04-24T04:19:15;13.63;;;3.43;;
18084;SDS011;9169;44.492;11.372;2023-04-24T04:21:44;11.13;;;3.50;;
18084;SDS011;9169;44.492;11.372;2023-04-24T04:24:39;12.90;;;3.60;;
18084;SDS011;9169;44.492;11.372;2023-04-24T04:27:09;11.20;;;3.60;;
18084;SDS011;9169;44.492;11.372;2023-04-24T04:29:48;13.73;;;3.90;;
18084;SDS011;9169;44.492;11.372;2023-04-24T04:32:17;12.33;;;3.37;;
18084;SDS011;9169;44.492;11.372;2023-04-24T04:34:46;13.47;;;4.40;;
18084;SDS011;9169;44.492;11.372;2023-04-24T04:37:16;13.90;;;4.30;;
18084;SDS011;9169;44.492;11.372;2023-04-24T04:40:00;11.47;;;4.13;;
18084;SDS011;9169;44.492;11.372;2023-04-24T04:42:38;10.60;;;3.87;;
18084;SDS011;9169;44.492;11.372;2023-04-24T04:45:07;13.60;;;4.87;;
18084;SDS011;9169;44.492;11.372;2023-04-24T04:47:52;13.97;;;4.73;;
18084;SDS011;9169;44.492;11.372;2023-04-24T04:50:21;11.37;;;4.50;;
18084;SDS011;9169;44.492;11.372;2023-04-24T04:52:55;13.50;;;6.27;;
18084;SDS011;9169;44.492;11.372;2023-04-24T04:55:32;13.57;;;5.03;;
18084;SDS011;9169;44.492;11.372;2023-04-24T04:58:14;14.70;;;4.70;;
18084;SDS011;9169;44.492;11.372;2023-04-24T05:00:44;11.20;;;4.83;;
18084;SDS011;9169;44.492;11.372;2023-04-24T05:03:35;11.60;;;4.80;;
18084;SDS011;9169;44.492;11.372;2023-04-24T05:06:08;16.87;;;5.57;;
18084;SDS011;9169;44.492;11.372;2023-04-24T05:08:38;12.97;;;4.73;;
18084;SDS011;9169;44.492;11.372;2023-04-24T05:11:13;12.63;;;4.70;;
18084;SDS011;9169;44.492;11.372;2023-04-24T05:13:42;17.03;;;4.87;;
18084;SDS011;9169;44.492;11.372;2023-04-24T05:16:18;13.90;;;4.87;;
18084;SDS011;9169;44.492;11.372;2023-04-24T05:18:48;13.10;;;4.90;;
18084;SDS011;9169;44.492;11.372;2023-04-24T05:21:22;13.10;;;5.20;;
18084;SDS011;9169;44.492;11.372;2023-04-24T05:23:51;13.13;;;5.33;;
18084;SDS011;9169;44.492;11.372;2023-04-24T05:26:35;12.63;;;5.73;;
18084;SDS011;9169;44.492;11.372;2023-04-24T05:29:07;11.50;;;5.47;;
18084;SDS011;9169;44.492;11.372;2023-04-24T05:31:35;14.50;;;5.50;;
18084;SDS011;9169;44.492;11.372;2023-04-24T05:34:04;15.87;;;5.80;;
18084;SDS011;9169;44.492;11.372;2023-04-24T05:36:34;13.63;;;5.57;;
18084;SDS011;9169;44.492;11.372;2023-04-24T05:39:03;18.40;;;5.53;;
18084;SDS011;9169;44.492;11.372;2023-04-24T05:41:33;16.30;;;5.50;;
18084;SDS011;9169;44.492;11.372;2023-04-24T05:44:03;14.70;;;6.47;;
18084;SDS011;9169;44.492;11.372;2023-04-24T05:46:32;16.13;;;7.10;;
18084;SDS011;9169;44.492;11.372;2023-04-24T05:49:00;14.10;;;7.37;;
18084;SDS011;9169;44.492;11.372;2023-04-24T05:51:32;18.67;;;7.70;;
18084;SDS011;9169;44.492;11.372;2023-04-24T05:54:00;15.73;;;7.40;;
18084;SDS011;9169;44.492;11.372;2023-04-24T05:56:30;18.00;;;8.20;;
18084;SDS011;9169;44.492;11.372;2023-04-24T05:59:02;17.57;;;8.30;;
18084;SDS011;9169;44.492;11.372;2023-04-24T06:01:31;18.13;;;9.10;;
18084;SDS011;9169;44.492;11.372;2023-04-24T06:04:12;18.87;;;9.30;;
18084;SDS011;9169;44.492;11.372;2023-04-24T06:06:41;20.03;;;10.00;;
18084;SDS011;9169;44.492;11.372;2023-04-24T06:09:10;19.77;;;11.07;;
18084;SDS011;9169;44.492;11.372;2023-04-24T06:11:39;31.57;;;18.70;;
18084;SDS011;9169;44.492;11.372;2023-04-24T06:14:12;24.07;;;11.47;;
18084;SDS011;9169;44.492;11.372;2023-04-24T06:17:10;21.97;;;11.23;;
18084;SDS011;9169;44.492;11.372;2023-04-24T06:19:40;21.23;;;11.23;;
18084;SDS011;9169;44.492;11.372;2023-04-24T06:22:09;23.70;;;13.00;;
18084;SDS011;9169;44.492;11.372;2023-04-24T06:24:39;25.87;;;12.20;;
18084;SDS011;9169;44.492;11.372;2023-04-24T06:27:08;33.33;;;17.93;;
18084;SDS011;9169;44.492;11.372;2023-04-24T06:29:37;48.73;;;30.63;;
18084;SDS011;9169;44.492;11.372;2023-04-24T06:32:06;27.20;;;13.40;;
18084;SDS011;9169;44.492;11.372;2023-04-24T06:34:35;21.73;;;10.90;;
18084;SDS011;9169;44.492;11.372;2023-04-24T06:37:04;20.53;;;10.80;;
18084;SDS011;9169;44.492;11.372;2023-04-24T06:39:33;57.30;;;39.57;;
18084;SDS011;9169;44.492;11.372;2023-04-24T06:42:02;24.00;;;11.40;;
18084;SDS011;9169;44.492;11.372;2023-04-24T06:44:33;21.83;;;11.10;;
18084;SDS011;9169;44.492;11.372;2023-04-24T06:47:09;19.83;;;10.60;;
18084;SDS011;9169;44.492;11.372;2023-04-24T06:49:40;23.23;;;10.70;;
18084;SDS011;9169;44.492;11.372;2023-04-24T06:52:09;22.77;;;10.53;;
18084;SDS011;9169;44.492;11.372;2023-04-24T06:54:38;30.00;;;10.83;;
18084;SDS011;9169;44.492;11.372;2023-04-24T06:57:06;25.00;;;10.50;;
18084;SDS011;9169;44.492;11.372;2023-04-24T06:59:37;22.23;;;10.50;;
18084;SDS011;9169;44.492;11.372;2023-04-24T07:02:05;25.07;;;10.60;;
18084;SDS011;9169;44.492;11.372;2023-04-24T07:04:36;22.50;;;9.50;;
18084;SDS011;9169;44.492;11.372;2023-04-24T07:07:04;19.50;;;9.43;;
18084;SDS011;9169;44.492;11.372;2023-04-24T07:09:34;18.30;;;8.40;;
18084;SDS011;9169;44.492;11.372;2023-04-24T07:12:05;24.00;;;11.90;;
18084;SDS011;9169;44.492;11.372;2023-04-24T07:14:35;21.47;;;9.30;;
18084;SDS011;9169;44.492;11.372;2023-04-24T07:17:03;20.33;;;10.27;;
18084;SDS011;9169;44.492;11.372;2023-04-24T07:19:33;20.33;;;10.00;;
18084;SDS011;9169;44.492;11.372;2023-04-24T07:22:05;15.50;;;8.90;;
18084;SDS011;9169;44.492;11.372;2023-04-24T07:24:34;17.20;;;8.17;;
18084;SDS011;9169;44.492;11.372;2023-04-24T07:27:03;25.93;;;7.20;;
18084;SDS011;9169;44.492;11.372;2023-04-24T07:29:32;19.07;;;8.70;;
18084;SDS011;9169;44.492;11.372;2023-04-24T07:32:01;14.67;;;7.67;;
18084;SDS011;9169;44.492;11.372;2023-04-24T07:34:30;16.60;;;7.90;;
18084;SDS011;9169;44.492;11.372;2023-04-24T07:36:58;15.13;;;8.90;;
18084;SDS011;9169;44.492;11.372;2023-04-24T07:39:29;20.87;;;11.20;;
18084;SDS011;9169;44.492;11.372;2023-04-24T07:41:58;17.43;;;8.27;;
18084;SDS011;9169;44.492;11.372;2023-04-24T07:44:28;14.43;;;7.60;;
18084;SDS011;9169;44.492;11.372;2023-04-24T07:46:57;15.10;;;7.47;;
18084;SDS011;9169;44.492;11.372;2023-04-24T07:49:26;14.57;;;7.60;;
18084;SDS011;9169;44.492;11.372;2023-04-24T07:51:55;17.67;;;6.90;;
18084;SDS011;9169;44.492;11.372;2023-04-24T07:54:24;13.00;;;6.90;;
18084;SDS011;9169;44.492;11.372;2023-04-24T07:56:54;13.83;;;7.30;;
18084;SDS011;9169;44.492;11.372;2023-04-24T07:59:23;15.37;;;7.77;;
18084;SDS011;9169;44.492;11.372;2023-04-24T08:01:51;13.43;;;6.40;;
18084;SDS011;9169;44.492;11.372;2023-04-24T08:04:20;17.50;;;7.20;;
18084;SDS011;9169;44.492;11.372;2023-04-24T08:06:49;12.60;;;6.20;;
18084;SDS011;9169;44.492;11.372;2023-04-24T08:09:18;14.73;;;5.60;;
18084;SDS011;9169;44.492;11.372;2023-04-24T08:11:47;13.20;;;5.80;;
18084;SDS011;9169;44.492;11.372;2023-04-24T08:14:17;12.57;;;6.40;;
18084;SDS011;9169;44.492;11.372;2023-04-24T08:16:46;15.63;;;6.10;;
18084;SDS011;9169;44.492;11.372;2023-04-24T08:19:15;11.23;;;5.73;;
18084;SDS011;9169;44.492;11.372;2023-04-24T08:21:43;9.57;;;4.27;;
18084;SDS011;9169;44.492;11.372;2023-04-24T08:24:12;14.80;;;5.03;;
18084;SDS011;9169;44.492;11.372;2023-04-24T08:26:41;16.13;;;4.83;;
18084;SDS011;9169;44.492;11.372;2023-04-24T08:29:09;9.67;;;4.20;;
18084;SDS011;9169;44.492;11.372;2023-04-24T08:31:40;9.17;;;4.13;;
18084;SDS011;9169;44.492;11.372;2023-04-24T08:34:09;11.10;;;4.10;;
18084;SDS011;9169;44.492;11.372;2023-04-24T08:36:38;9.17;;;3.90;;
18084;SDS011;9169;44.492;11.372;2023-04-24T08:39:11;10.63;;;6.60;;
18084;SDS011;9169;44.492;11.372;2023-04-24T08:41:41;11.93;;;6.40;;
18084;SDS011;9169;44.492;11.372;2023-04-24T08:44:12;14.43;;;8.10;;
18084;SDS011;9169;44.492;11.372;2023-04-24T08:46:44;14.17;;;6.70;;
18084;SDS011;9169;44.492;11.372;2023-04-24T08:49:15;11.20;;;5.77;;
18084;SDS011;9169;44.492;11.372;2023-04-24T08:51:44;13.17;;;6.77;;
18084;SDS011;9169;44.492;11.372;2023-04-24T08:54:13;12.27;;;5.60;;
18084;SDS011;9169;44.492;11.372;2023-04-24T08:56:43;13.17;;;6.53;;
18084;SDS011;9169;44.492;11.372;2023-04-24T08:59:12;14.37;;;8.93;;
18084;SDS011;9169;44.492;11.372;2023-04-24T09:01:43;14.50;;;7.80;;
18084;SDS011;9169;44.492;11.372;2023-04-24T09:04:15;11.07;;;7.17;;
18084;SDS011;9169;44.492;11.372;2023-04-24T09:06:46;11.43;;;6.90;;
18084;SDS011;9169;44.492;11.372;2023-04-24T09:09:16;9.80;;;6.80;;
18084;SDS011;9169;44.492;11.372;2023-04-24T09:11:45;11.80;;;6.27;;
18084;SDS011;9169;44.492;11.372;2023-04-24T09:14:16;12.03;;;7.40;;
18084;SDS011;9169;44.492;11.372;2023-04-24T09:16:48;11.20;;;7.47;;
18084;SDS011;9169;44.492;11.372;2023-04-24T09:19:18;13.57;;;6.80;;
18084;SDS011;9169;44.492;11.372;2023-04-24T09:21:49;9.00;;;5.70;;
18084;SDS011;9169;44.492;11.372;2023-04-24T09:24:21;8.40;;;5.67;;
18084;SDS011;9169;44.492;11.372;2023-04-24T09:26:55;10.70;;;5.40;;
18084;SDS011;9169;44.492;11.372;2023-04-24T09:29:25;9.40;;;7.20;;
18084;SDS011;9169;44.492;11.372;2023-04-24T09:31:55;8.93;;;7.67;;
18084;SDS011;9169;44.492;11.372;2023-04-24T09:34:24;15.87;;;8.50;;
18084;SDS011;9169;44.492;11.372;2023-04-24T09:36:54;12.10;;;8.13;;
18084;SDS011;9169;44.492;11.372;2023-04-24T09:39:23;11.23;;;7.30;;
18084;SDS011;9169;44.492;11.372;2023-04-24T09:41:52;10.97;;;7.00;;
18084;SDS011;9169;44.492;11.372;2023-04-24T09:44:22;14.50;;;6.90;;
18084;SDS011;9169;44.492;11.372;2023-04-24T09:46:53;19.30;;;10.97;;
18084;SDS011;9169;44.492;11.372;2023-04-24T09:49:25;19.57;;;14.67;;
18084;SDS011;9169;44.492;11.372;2023-04-24T09:52:02;7.47;;;4.67;;
18084;SDS011;9169;44.492;11.372;2023-04-24T09:54:31;9.87;;;4.70;;
18084;SDS011;9169;44.492;11.372;2023-04-24T09:57:00;9.50;;;6.03;;
18084;SDS011;9169;44.492;11.372;2023-04-24T09:59:29;8.03;;;3.90;;
18084;SDS011;9169;44.492;11.372;2023-04-24T10:01:59;6.37;;;3.33;;
18084;SDS011;9169;44.492;11.372;2023-04-24T10:04:28;9.90;;;4.17;;
18084;SDS011;9169;44.492;11.372;2023-04-24T10:06:57;16.40;;;12.13;;
18084;SDS011;9169;44.492;11.372;2023-04-24T10:09:27;8.97;;;3.77;;
18084;SDS011;9169;44.492;11.372;2023-04-24T10:11:56;12.77;;;10.40;;
18084;SDS011;9169;44.492;11.372;2023-04-24T10:14:25;5.47;;;2.57;;
18084;SDS011;9169;44.492;11.372;2023-04-24T10:16:54;6.70;;;3.93;;
18084;SDS011;9169;44.492;11.372;2023-04-24T10:19:26;5.20;;;2.47;;
18084;SDS011;9169;44.492;11.372;2023-04-24T10:21:55;7.23;;;3.97;;
18084;SDS011;9169;44.492;11.372;2023-04-24T10:24:25;7.67;;;3.90;;
18084;SDS011;9169;44.492;11.372;2023-04-24T10:26:53;7.13;;;2.80;;
18084;SDS011;9169;44.492;11.372;2023-04-24T10:29:23;6.50;;;3.33;;
18084;SDS011;9169;44.492;11.372;2023-04-24T10:31:53;17.00;;;14.03;;
18084;SDS011;9169;44.492;11.372;2023-04-24T10:34:22;24.37;;;18.17;;
18084;SDS011;9169;44.492;11.372;2023-04-24T10:36:53;5.00;;;2.70;;
18084;SDS011;9169;44.492;11.372;2023-04-24T10:39:24;7.60;;;3.80;;
18084;SDS011;9169;44.492;11.372;2023-04-24T10:41:53;4.33;;;2.40;;
18084;SDS011;9169;44.492;11.372;2023-04-24T10:44:23;3.80;;;2.50;;
18084;SDS011;9169;44.492;11.372;2023-04-24T10:46:53;8.37;;;3.70;;
18084;SDS011;9169;44.492;11.372;2023-04-24T10:49:27;5.90;;;2.70;;
18084;SDS011;9169;44.492;11.372;2023-04-24T10:52:01;5.93;;;3.23;;
18084;SDS011;9169;44.492;11.372;2023-04-24T10:54:34;11.33;;;3.40;;
18084;SDS011;9169;44.492;11.372;2023-04-24T11:00:15;7.10;;;3.70;;
18084;SDS011;9169;44.492;11.372;2023-04-24T11:02:46;6.23;;;2.93;;
18084;SDS011;9169;44.492;11.372;2023-04-24T11:05:17;6.23;;;2.83;;
18084;SDS011;9169;44.492;11.372;2023-04-24T11:10:45;8.70;;;3.10;;
18084;SDS011;9169;44.492;11.372;2023-04-24T11:13:15;4.73;;;2.90;;
18084;SDS011;9169;44.492;11.372;2023-04-24T11:15:44;7.13;;;2.80;;
18084;SDS011;9169;44.492;11.372;2023-04-24T11:18:39;7.57;;;3.43;;
18084;SDS011;9169;44.492;11.372;2023-04-24T11:21:12;6.30;;;3.50;;
18084;SDS011;9169;44.492;11.372;2023-04-24T11:23:40;5.50;;;3.10;;
18084;SDS011;9169;44.492;11.372;2023-04-24T11:26:11;7.63;;;3.30;;
18084;SDS011;9169;44.492;11.372;2023-04-24T11:28:44;7.63;;;5.57;;
18084;SDS011;9169;44.492;11.372;2023-04-24T11:34:09;5.50;;;3.37;;
18084;SDS011;9169;44.492;11.372;2023-04-24T11:36:39;5.60;;;2.90;;
18084;SDS011;9169;44.492;11.372;2023-04-24T11:39:10;7.13;;;4.30;;
18084;SDS011;9169;44.492;11.372;2023-04-24T11:41:40;6.10;;;3.20;;
18084;SDS011;9169;44.492;11.372;2023-04-24T11:44:09;6.83;;;3.37;;
18084;SDS011;9169;44.492;11.372;2023-04-24T11:46:38;5.70;;;3.27;;
18084;SDS011;9169;44.492;11.372;2023-04-24T11:49:07;14.77;;;10.43;;
18084;SDS011;9169;44.492;11.372;2023-04-24T11:51:36;7.77;;;3.83;;
18084;SDS011;9169;44.492;11.372;2023-04-24T11:54:13;5.37;;;3.30;;
18084;SDS011;9169;44.492;11.372;2023-04-24T11:56:45;7.90;;;4.23;;
18084;SDS011;9169;44.492;11.372;2023-04-24T11:59:14;10.43;;;5.57;;
18084;SDS011;9169;44.492;11.372;2023-04-24T12:01:44;5.40;;;3.90;;
18084;SDS011;9169;44.492;11.372;2023-04-24T12:04:13;8.83;;;5.67;;
18084;SDS011;9169;44.492;11.372;2023-04-24T12:09:28;11.97;;;8.70;;
18084;SDS011;9169;44.492;11.372;2023-04-24T12:11:58;7.43;;;4.50;;
18084;SDS011;9169;44.492;11.372;2023-04-24T12:14:27;6.53;;;3.30;;
18084;SDS011;9169;44.492;11.372;2023-04-24T12:16:55;8.63;;;6.00;;
18084;SDS011;9169;44.492;11.372;2023-04-24T12:19:24;7.63;;;3.37;;
18084;SDS011;9169;44.492;11.372;2023-04-24T12:21:59;7.33;;;3.33;;
18084;SDS011;9169;44.492;11.372;2023-04-24T12:24:29;5.10;;;3.70;;
18084;SDS011;9169;44.492;11.372;2023-04-24T12:26:59;6.80;;;4.77;;
18084;SDS011;9169;44.492;11.372;2023-04-24T12:29:29;8.50;;;5.87;;
18084;SDS011;9169;44.492;11.372;2023-04-24T12:31:57;6.67;;;3.60;;
18084;SDS011;9169;44.492;11.372;2023-04-24T12:34:26;7.73;;;6.03;;
18084;SDS011;9169;44.492;11.372;2023-04-24T12:36:55;5.57;;;3.10;;
18084;SDS011;9169;44.492;11.372;2023-04-24T12:39:24;7.33;;;6.17;;
18084;SDS011;9169;44.492;11.372;2023-04-24T12:41:56;6.47;;;4.43;;
18084;SDS011;9169;44.492;11.372;2023-04-24T12:44:31;7.20;;;3.20;;
18084;SDS011;9169;44.492;11.372;2023-04-24T12:47:01;6.43;;;2.77;;
18084;SDS011;9169;44.492;11.372;2023-04-24T12:49:29;6.73;;;4.80;;
18084;SDS011;9169;44.492;11.372;2023-04-24T12:51:58;6.37;;;2.80;;
18084;SDS011;9169;44.492;11.372;2023-04-24T12:54:31;5.67;;;2.90;;
18084;SDS011;9169;44.492;11.372;2023-04-24T12:57:01;5.40;;;2.60;;
18084;SDS011;9169;44.492;11.372;2023-04-24T12:59:31;6.13;;;2.87;;
18084;SDS011;9169;44.492;11.372;2023-04-24T13:02:00;8.37;;;3.13;;
18084;SDS011;9169;44.492;11.372;2023-04-24T13:04:28;9.50;;;6.37;;
18084;SDS011;9169;44.492;11.372;2023-04-24T13:06:57;5.10;;;2.70;;
18084;SDS011;9169;44.492;11.372;2023-04-24T13:09:26;6.00;;;3.13;;
18084;SDS011;9169;44.492;11.372;2023-04-24T13:11:54;5.00;;;2.70;;
18084;SDS011;9169;44.492;11.372;2023-04-24T13:14:23;8.70;;;3.10;;
18084;SDS011;9169;44.492;11.372;2023-04-24T13:16:53;5.80;;;2.97;;
18084;SDS011;9169;44.492;11.372;2023-04-24T13:19:23;5.90;;;3.80;;
18084;SDS011;9169;44.492;11.372;2023-04-24T13:21:54;4.37;;;3.10;;
18084;SDS011;9169;44.492;11.372;2023-04-24T13:24:24;4.97;;;2.90;;
18084;SDS011;9169;44.492;11.372;2023-04-24T13:26:53;11.10;;;3.77;;
18084;SDS011;9169;44.492;11.372;2023-04-24T13:29:23;4.57;;;2.70;;
18084;SDS011;9169;44.492;11.372;2023-04-24T13:31:53;12.30;;;3.93;;
18084;SDS011;9169;44.492;11.372;2023-04-24T13:34:23;22.03;;;4.90;;
18084;SDS011;9169;44.492;11.372;2023-04-24T13:36:52;21.90;;;3.53;;
18084;SDS011;9169;44.492;11.372;2023-04-24T13:39:22;8.03;;;3.77;;
18084;SDS011;9169;44.492;11.372;2023-04-24T13:41:51;4.67;;;2.67;;
18084;SDS011;9169;44.492;11.372;2023-04-24T13:44:20;8.70;;;3.63;;
18084;SDS011;9169;44.492;11.372;2023-04-24T13:46:51;5.83;;;3.90;;
18084;SDS011;9169;44.492;11.372;2023-04-24T13:49:24;5.53;;;2.60;;
18084;SDS011;9169;44.492;11.372;2023-04-24T13:51:54;5.47;;;2.90;;
18084;SDS011;9169;44.492;11.372;2023-04-24T13:54:23;4.33;;;2.60;;
18084;SDS011;9169;44.492;11.372;2023-04-24T13:56:52;4.07;;;2.43;;
18084;SDS011;9169;44.492;11.372;2023-04-24T13:59:21;7.97;;;5.87;;
18084;SDS011;9169;44.492;11.372;2023-04-24T14:01:50;4.90;;;2.37;;
18084;SDS011;9169;44.492;11.372;2023-04-24T14:04:20;7.57;;;5.50;;
18084;SDS011;9169;44.492;11.372;2023-04-24T14:06:49;3.77;;;2.70;;
18084;SDS011;9169;44.492;11.372;2023-04-24T14:09:18;6.47;;;4.13;;
18084;SDS011;9169;44.492;11.372;2023-04-24T14:11:47;6.83;;;3.40;;
18084;SDS011;9169;44.492;11.372;2023-04-24T14:14:16;5.67;;;3.10;;
18084;SDS011;9169;44.492;11.372;2023-04-24T14:16:44;8.57;;;4.70;;
18084;SDS011;9169;44.492;11.372;2023-04-24T14:19:13;10.73;;;7.40;;
18084;SDS011;9169;44.492;11.372;2023-04-24T14:21:43;7.30;;;2.63;;
18084;SDS011;9169;44.492;11.372;2023-04-24T14:24:12;9.63;;;5.00;;
18084;SDS011;9169;44.492;11.372;2023-04-24T14:26:41;4.80;;;2.77;;
18084;SDS011;9169;44.492;11.372;2023-04-24T14:29:09;5.60;;;2.80;;
18084;SDS011;9169;44.492;11.372;2023-04-24T14:31:40;7.47;;;5.50;;
18084;SDS011;9169;44.492;11.372;2023-04-24T14:34:09;5.23;;;2.97;;
18084;SDS011;9169;44.492;11.372;2023-04-24T14:36:38;6.93;;;2.70;;
18084;SDS011;9169;44.492;11.372;2023-04-24T14:39:08;4.57;;;2.93;;
18084;SDS011;9169;44.492;11.372;2023-04-24T14:41:37;5.23;;;2.80;;
18084;SDS011;9169;44.492;11.372;2023-04-24T14:44:07;9.63;;;8.30;;
18084;SDS011;9169;44.492;11.372;2023-04-24T14:46:35;4.90;;;2.70;;
18084;SDS011;9169;44.492;11.372;2023-04-24T14:49:04;3.90;;;2.60;;
18084;SDS011;9169;44.492;11.372;2023-04-24T14:51:36;5.90;;;2.77;;
18084;SDS011;9169;44.492;11.372;2023-04-24T14:54:04;6.23;;;2.33;;
18084;SDS011;9169;44.492;11.372;2023-04-24T14:56:34;6.03;;;3.03;;
18084;SDS011;9169;44.492;11.372;2023-04-24T14:59:03;4.60;;;3.07;;
18084;SDS011;9169;44.492;11.372;2023-04-24T15:01:32;5.50;;;2.53;;
18084;SDS011;9169;44.492;11.372;2023-04-24T15:04:00;5.20;;;2.43;;
18084;SDS011;9169;44.492;11.372;2023-04-24T15:06:29;6.40;;;3.33;;
18084;SDS011;9169;44.492;11.372;2023-04-24T15:08:59;15.40;;;8.93;;
18084;SDS011;9169;44.492;11.372;2023-04-24T15:11:27;7.87;;;5.77;;